Time;durP1;ratioP1;P1;durP2;ratioP2;P2;SDS_P1;SDS_P2;PMS_P1;PMS_P2;Temp;Humidity;BMP_temperature;BMP_pressure;BME280_temperature;BME280_humidity;BME280_pressure;Samples;Min_cycle;Max_cycle;Signal;HPM_P1;HPM_P2
2022/11/13 00:00:23;;;;;;;;;73.00;54.00;;;;;;;;5084393;27;63728;-84
2022/11/13 00:02:49;;;;;;;;;69.25;53.00;;;;;;;;5084505;27;61892;-83
2022/11/13 00:05:14;;;;;;;;;75.50;55.50;;;;;;;;5084918;27;61929;-83
2022/11/13 00:07:39;;;;;;;;;74.00;55.00;;;;;;;;5085289;27;61963;-84
2022/11/13 00:10:05;;;;;;;;;69.75;52.75;;;;;;;;5084481;27;62093;-83
2022/11/13 00:12:30;;;;;;;;;74.25;56.00;;;;;;;;5103360;27;62814;-83
2022/11/13 00:14:55;;;;;;;;;69.25;53.00;;;;;;;;5085164;27;61867;-83
2022/11/13 00:17:21;;;;;;;;;62.75;47.75;;;;;;;;5102947;27;62050;-84
2022/11/13 00:19:46;;;;;;;;;72.50;53.50;;;;;;;;5083624;27;62033;-84
2022/11/13 00:22:11;;;;;;;;;65.25;50.50;;;;;;;;5103329;27;61905;-83
2022/11/13 00:24:36;;;;;;;;;72.00;53.25;;;;;;;;5085091;27;62153;-84
2022/11/13 00:27:02;;;;;;;;;68.50;52.00;;;;;;;;5103410;27;61782;-83
2022/11/13 00:29:27;;;;;;;;;64.00;50.25;;;;;;;;5084388;27;62182;-84
2022/11/13 00:31:52;;;;;;;;;66.00;51.00;;;;;;;;5102598;27;61990;-83
2022/11/13 00:34:17;;;;;;;;;68.50;52.00;;;;;;;;5103197;27;61824;-83
2022/11/13 00:36:43;;;;;;;;;63.00;49.75;;;;;;;;5075053;27;62296;-83
2022/11/13 00:39:09;;;;;;;;;68.50;48.00;;;;;;;;5102656;27;62491;-83
2022/11/13 00:41:34;;;;;;;;;63.75;49.00;;;;;;;;5102647;27;61961;-83
2022/11/13 00:43:59;;;;;;;;;67.50;50.00;;;;;;;;5103299;27;61658;-83
2022/11/13 00:46:24;;;;;;;;;52.75;43.00;;;;;;;;5083919;27;61851;-83
2022/11/13 00:48:50;;;;;;;;;64.50;48.25;;;;;;;;5101643;27;61878;-83
2022/11/13 00:51:15;;;;;;;;;63.00;48.25;;;;;;;;5103054;27;61933;-83
2022/11/13 00:53:40;;;;;;;;;62.25;45.75;;;;;;;;5084460;27;61848;-84
2022/11/13 00:56:05;;;;;;;;;58.50;46.75;;;;;;;;5084642;27;61823;-83
2022/11/13 00:58:31;;;;;;;;;59.25;42.00;;;;;;;;5083699;27;63433;-84
2022/11/13 01:01:02;;;;;;;;;65.75;47.25;;;;;;;;5102119;27;61895;-84
2022/11/13 01:03:27;;;;;;;;;59.00;44.50;;;;;;;;5084224;27;61740;-83
2022/11/13 01:05:52;;;;;;;;;62.25;49.00;;;;;;;;5102621;27;61710;-84
2022/11/13 01:08:18;;;;;;;;;61.75;47.50;;;;;;;;5083908;27;64165;-83
2022/11/13 01:10:44;;;;;;;;;57.25;45.00;;;;;;;;5084121;27;62027;-84
2022/11/13 01:13:10;;;;;;;;;59.50;47.50;;;;;;;;5084105;27;61938;-83
2022/11/13 01:15:37;;;;;;;;;62.75;49.25;;;;;;;;5102562;27;61902;-84
2022/11/13 01:18:03;;;;;;;;;53.50;40.25;;;;;;;;5104210;27;61987;-84
2022/11/13 01:20:28;;;;;;;;;61.25;45.25;;;;;;;;5105767;27;62091;-84
2022/11/13 01:22:53;;;;;;;;;60.25;47.75;;;;;;;;5087513;27;62053;-84
2022/11/13 01:25:18;;;;;;;;;60.75;47.75;;;;;;;;5087959;27;61796;-84
2022/11/13 01:27:44;;;;;;;;;68.75;51.50;;;;;;;;5086684;27;61970;-84
2022/11/13 01:30:09;;;;;;;;;71.25;55.00;;;;;;;;5087307;27;61964;-84
2022/11/13 01:32:34;;;;;;;;;68.50;52.50;;;;;;;;5086942;27;61962;-84
2022/11/13 01:35:00;;;;;;;;;65.75;50.50;;;;;;;;5087740;27;61708;-84
2022/11/13 01:37:25;;;;;;;;;74.75;52.00;;;;;;;;5086473;27;62225;-83
2022/11/13 01:39:50;;;;;;;;;71.25;56.50;;;;;;;;5105623;27;61965;-84
2022/11/13 01:42:16;;;;;;;;;80.25;60.00;;;;;;;;5105856;27;61939;-84
2022/11/13 01:44:51;;;;;;;;;79.00;57.00;;;;;;;;5105489;27;61856;-84
2022/11/13 01:47:17;;;;;;;;;71.50;55.00;;;;;;;;5104864;27;61750;-84
2022/11/13 01:49:43;;;;;;;;;81.00;58.50;;;;;;;;5105272;27;61941;-84
2022/11/13 01:52:12;;;;;;;;;83.75;60.00;;;;;;;;5087150;27;61782;-84
2022/11/13 01:54:39;;;;;;;;;79.00;60.00;;;;;;;;5087617;27;62199;-84
2022/11/13 01:57:05;;;;;;;;;77.50;60.50;;;;;;;;5085972;27;65095;-83
2022/11/13 01:59:33;;;;;;;;;74.25;57.00;;;;;;;;5105534;27;61799;-84
2022/11/13 02:01:58;;;;;;;;;74.00;55.50;;;;;;;;5086283;27;62085;-84
2022/11/13 02:04:24;;;;;;;;;72.00;54.75;;;;;;;;5087182;27;61864;-84
2022/11/13 02:06:52;;;;;;;;;77.25;59.25;;;;;;;;5104796;27;63284;-84
2022/11/13 02:09:19;;;;;;;;;76.33;60.00;;;;;;;;5105348;27;61752;-84
2022/11/13 02:11:44;;;;;;;;;76.00;58.25;;;;;;;;5104266;27;62130;-84
2022/11/13 02:14:10;;;;;;;;;75.75;57.00;;;;;;;;5087109;27;61736;-84
2022/11/13 02:16:36;;;;;;;;;74.00;58.25;;;;;;;;5104203;27;63016;-84
2022/11/13 02:19:04;;;;;;;;;70.75;53.50;;;;;;;;5104552;27;61755;-84
2022/11/13 02:21:48;;;;;;;;;71.50;56.00;;;;;;;;5105092;27;61710;-84
2022/11/13 02:24:13;;;;;;;;;73.75;53.50;;;;;;;;5105327;27;61784;-84
2022/11/13 02:26:39;;;;;;;;;71.25;54.00;;;;;;;;5103810;27;63009;-84
2022/11/13 02:29:05;;;;;;;;;66.25;54.00;;;;;;;;5104550;27;61942;-84
2022/11/13 02:31:30;;;;;;;;;70.50;53.00;;;;;;;;5105004;27;61868;-84
2022/11/13 02:33:55;;;;;;;;;62.25;49.50;;;;;;;;5104803;27;62157;-84
2022/11/13 02:36:22;;;;;;;;;69.00;52.75;;;;;;;;5085675;27;65092;-84
2022/11/13 02:38:49;;;;;;;;;75.25;54.50;;;;;;;;5086137;27;61861;-84
2022/11/13 02:41:14;;;;;;;;;63.00;49.75;;;;;;;;5104633;27;62222;-84
2022/11/13 02:43:39;;;;;;;;;55.75;42.75;;;;;;;;5104777;27;62143;-84
2022/11/13 02:46:05;;;;;;;;;67.75;51.50;;;;;;;;5103790;27;61856;-83
2022/11/13 02:48:30;;;;;;;;;64.00;47.75;;;;;;;;5104358;27;61741;-83
2022/11/13 02:50:55;;;;;;;;;60.25;47.75;;;;;;;;5086075;27;61820;-83
2022/11/13 02:53:21;;;;;;;;;59.50;45.25;;;;;;;;5086452;27;61797;-84
2022/11/13 02:55:46;;;;;;;;;55.25;44.50;;;;;;;;5103288;27;62699;-84
2022/11/13 02:58:11;;;;;;;;;54.50;41.50;;;;;;;;5104676;27;61670;-84
2022/11/13 03:00:36;;;;;;;;;46.25;39.75;;;;;;;;5086165;27;61828;-84
2022/11/13 03:03:02;;;;;;;;;50.50;38.00;;;;;;;;5085853;27;61783;-84
2022/11/13 03:05:27;;;;;;;;;50.75;40.25;;;;;;;;5085561;27;62787;-83
2022/11/13 03:07:52;;;;;;;;;41.75;35.00;;;;;;;;5104215;27;61808;-84
2022/11/13 03:10:18;;;;;;;;;41.50;35.75;;;;;;;;5085841;27;61764;-84
2022/11/13 03:12:43;;;;;;;;;45.25;36.00;;;;;;;;5086204;27;61699;-84
2022/11/13 03:15:09;;;;;;;;;47.00;39.00;;;;;;;;5085112;27;61910;-84
2022/11/13 03:17:34;;;;;;;;;42.25;35.75;;;;;;;;5085332;27;61759;-83
2022/11/13 03:19:59;;;;;;;;;45.50;37.50;;;;;;;;5085460;27;61801;-84
2022/11/13 03:22:25;;;;;;;;;46.00;38.00;;;;;;;;5085788;27;62141;-84
2022/11/13 03:24:50;;;;;;;;;39.00;35.50;;;;;;;;5103190;27;63221;-84
2022/11/13 03:27:15;;;;;;;;;46.50;39.00;;;;;;;;5104163;27;61890;-84
2022/11/13 03:29:41;;;;;;;;;48.25;37.00;;;;;;;;5085839;27;61933;-84
2022/11/13 03:32:06;;;;;;;;;42.25;33.50;;;;;;;;5085015;27;61847;-83
2022/11/13 03:34:31;;;;;;;;;50.75;37.00;;;;;;;;5085028;27;63443;-84
2022/11/13 03:36:57;;;;;;;;;48.50;38.00;;;;;;;;5103673;27;61855;-84
2022/11/13 03:39:22;;;;;;;;;32.00;25.50;;;;;;;;5084309;27;61879;-84
2022/11/13 03:41:47;;;;;;;;;33.75;25.50;;;;;;;;5104015;27;61813;-83
2022/11/13 03:44:12;;;;;;;;;44.50;37.75;;;;;;;;5103107;27;62846;-84
2022/11/13 03:46:38;;;;;;;;;46.75;36.25;;;;;;;;5084903;27;62059;-83
2022/11/13 03:49:03;;;;;;;;;44.50;36.75;;;;;;;;5084779;27;61870;-83
2022/11/13 03:51:28;;;;;;;;;44.75;37.50;;;;;;;;5085256;27;61871;-84
2022/11/13 03:53:53;;;;;;;;;38.75;31.75;;;;;;;;5102551;27;61907;-83
2022/11/13 03:56:19;;;;;;;;;47.75;38.25;;;;;;;;5103649;27;61875;-84
2022/11/13 03:58:44;;;;;;;;;41.75;33.75;;;;;;;;5085470;27;62320;-84
2022/11/13 04:01:09;;;;;;;;;40.00;32.50;;;;;;;;5084631;27;62223;-84
2022/11/13 04:03:35;;;;;;;;;36.00;34.00;;;;;;;;5084450;27;61833;-84
2022/11/13 04:06:00;;;;;;;;;38.75;34.00;;;;;;;;5084633;27;61823;-84
2022/11/13 04:08:25;;;;;;;;;35.25;28.00;;;;;;;;5084732;27;61739;-84
2022/11/13 04:10:50;;;;;;;;;30.25;26.75;;;;;;;;5103807;27;61700;-84
2022/11/13 04:13:16;;;;;;;;;42.50;30.00;;;;;;;;5102501;27;61937;-84
2022/11/13 04:15:41;;;;;;;;;34.00;27.75;;;;;;;;5103583;27;61764;-84
2022/11/13 04:18:06;;;;;;;;;34.25;29.00;;;;;;;;5102745;27;61848;-84
2022/11/13 04:20:32;;;;;;;;;31.50;28.75;;;;;;;;5103217;27;61688;-84
2022/11/13 04:22:57;;;;;;;;;36.75;28.00;;;;;;;;5102124;27;62940;-83
2022/11/13 04:25:23;;;;;;;;;28.75;26.50;;;;;;;;5084841;27;61812;-84
2022/11/13 04:27:49;;;;;;;;;29.25;25.75;;;;;;;;5103199;27;61777;-84
2022/11/13 04:30:15;;;;;;;;;35.00;31.50;;;;;;;;5085018;27;61873;-84
2022/11/13 04:32:40;;;;;;;;;39.50;28.50;;;;;;;;5102017;27;62622;-84
2022/11/13 04:35:05;;;;;;;;;34.00;25.25;;;;;;;;5084575;27;61824;-84
2022/11/13 04:37:31;;;;;;;;;35.25;27.75;;;;;;;;5102855;27;61757;-84
2022/11/13 04:39:56;;;;;;;;;36.50;27.25;;;;;;;;5103657;27;61757;-84
2022/11/13 04:45:05;;;;;;;;;32.50;28.50;;;;;;;;5102893;27;61962;-84
2022/11/13 04:47:31;;;;;;;;;27.00;22.25;;;;;;;;5103694;27;61976;-83
2022/11/13 04:49:56;;;;;;;;;34.75;28.00;;;;;;;;5083401;27;61788;-83
2022/11/13 04:52:21;;;;;;;;;29.50;28.75;;;;;;;;5101611;27;61697;-83
2022/11/13 04:54:46;;;;;;;;;32.75;25.75;;;;;;;;5102818;27;62058;-83
2022/11/13 04:57:12;;;;;;;;;31.75;26.00;;;;;;;;5084433;27;62428;-83
2022/11/13 04:59:37;;;;;;;;;28.50;17.25;;;;;;;;5102823;27;62754;-83
2022/11/13 05:02:02;;;;;;;;;19.00;17.75;;;;;;;;5083348;27;63348;-83
2022/11/13 05:04:28;;;;;;;;;24.25;17.00;;;;;;;;5084037;27;61810;-83
2022/11/13 05:06:53;;;;;;;;;24.50;19.00;;;;;;;;5102388;27;61769;-83
2022/11/13 05:09:18;;;;;;;;;13.75;9.00;;;;;;;;5102710;27;61705;-83
2022/11/13 05:11:44;;;;;;;;;22.00;20.25;;;;;;;;5102131;27;61856;-83
2022/11/13 05:14:12;;;;;;;;;26.50;16.75;;;;;;;;5102428;27;61886;-83
2022/11/13 05:16:37;;;;;;;;;20.25;19.25;;;;;;;;5102392;27;61938;-83
2022/11/13 05:19:06;;;;;;;;;22.00;19.00;;;;;;;;5083490;27;61803;-83
2022/11/13 05:21:40;;;;;;;;;28.25;23.25;;;;;;;;5101382;27;62973;-83
2022/11/13 05:24:06;;;;;;;;;30.00;21.25;;;;;;;;5102387;27;61937;-83
2022/11/13 05:26:31;;;;;;;;;29.50;27.25;;;;;;;;5084000;27;61959;-83
2022/11/13 05:28:57;;;;;;;;;30.00;26.25;;;;;;;;5083918;27;61867;-84
2022/11/13 05:31:23;;;;;;;;;28.75;23.50;;;;;;;;5082856;27;64177;-83
2022/11/13 05:33:48;;;;;;;;;28.25;27.25;;;;;;;;5102525;27;61874;-83
2022/11/13 05:36:14;;;;;;;;;34.25;27.25;;;;;;;;5101694;27;62323;-83
2022/11/13 05:38:40;;;;;;;;;34.75;29.75;;;;;;;;5102863;27;61886;-83
2022/11/13 05:41:09;;;;;;;;;30.50;23.75;;;;;;;;5083679;27;63420;-84
2022/11/13 05:43:35;;;;;;;;;33.50;25.75;;;;;;;;5083776;27;61913;-84
2022/11/13 05:46:01;;;;;;;;;31.25;29.25;;;;;;;;5102148;27;61970;-84
2022/11/13 05:48:27;;;;;;;;;23.75;21.75;;;;;;;;5101791;27;61820;-83
2022/11/13 05:50:52;;;;;;;;;30.75;25.50;;;;;;;;5101643;27;62179;-83
2022/11/13 05:53:17;;;;;;;;;30.75;24.00;;;;;;;;5101897;27;61935;-83
2022/11/13 05:55:42;;;;;;;;;32.25;26.00;;;;;;;;5083818;27;61755;-83
2022/11/13 05:58:08;;;;;;;;;30.00;29.00;;;;;;;;5084142;27;62082;-83
2022/11/13 06:00:33;;;;;;;;;32.25;28.00;;;;;;;;5082826;27;63666;-83
2022/11/13 06:02:58;;;;;;;;;26.50;24.75;;;;;;;;5084081;27;62059;-84
2022/11/13 06:05:24;;;;;;;;;27.50;24.00;;;;;;;;5086672;27;61798;-83
2022/11/13 06:07:49;;;;;;;;;31.50;18.50;;;;;;;;5105471;27;61792;-83
2022/11/13 06:10:14;;;;;;;;;25.25;20.00;;;;;;;;5105234;27;62212;-84
2022/11/13 06:12:40;;;;;;;;;20.00;17.50;;;;;;;;5105013;27;61928;-83
2022/11/13 06:15:05;;;;;;;;;19.00;16.50;;;;;;;;5087349;27;61824;-83
2022/11/13 06:17:30;;;;;;;;;19.75;16.25;;;;;;;;5105254;27;61748;-85
2022/11/13 06:19:56;;;;;;;;;21.50;18.00;;;;;;;;5103798;27;62011;-84
2022/11/13 06:22:26;;;;;;;;;23.25;19.25;;;;;;;;5104753;27;61874;-83
2022/11/13 06:24:53;;;;;;;;;18.75;16.50;;;;;;;;5086993;27;61939;-84
2022/11/13 06:27:18;;;;;;;;;23.00;17.75;;;;;;;;5105594;27;61800;-83
2022/11/13 06:29:45;;;;;;;;;21.25;18.25;;;;;;;;5086058;27;63757;-83
2022/11/13 06:32:11;;;;;;;;;21.75;16.75;;;;;;;;5086376;27;62678;-83
2022/11/13 06:34:36;;;;;;;;;12.50;11.50;;;;;;;;5086148;27;62035;-84
2022/11/13 06:37:01;;;;;;;;;15.75;15.75;;;;;;;;5105126;27;62001;-83
2022/11/13 06:39:26;;;;;;;;;17.75;16.00;;;;;;;;5104512;27;62971;-84
2022/11/13 06:41:52;;;;;;;;;15.00;12.50;;;;;;;;5086703;27;61757;-84
2022/11/13 06:44:17;;;;;;;;;19.50;16.00;;;;;;;;5086543;27;61890;-83
2022/11/13 06:46:42;;;;;;;;;11.00;7.00;;;;;;;;5104703;27;62307;-83
2022/11/13 06:49:07;;;;;;;;;14.50;14.50;;;;;;;;5103804;27;62575;-83
2022/11/13 06:51:33;;;;;;;;;24.00;23.00;;;;;;;;5086521;27;61758;-83
2022/11/13 06:53:58;;;;;;;;;25.00;21.50;;;;;;;;5086418;27;62239;-84
2022/11/13 06:56:25;;;;;;;;;28.00;22.75;;;;;;;;5104978;27;61765;-84
2022/11/13 06:58:50;;;;;;;;;21.50;20.25;;;;;;;;5085876;27;63881;-83
2022/11/13 07:01:17;;;;;;;;;21.25;20.50;;;;;;;;5085758;27;62202;-83
2022/11/13 07:03:42;;;;;;;;;22.00;20.25;;;;;;;;5085840;27;61975;-84
2022/11/13 07:06:08;;;;;;;;;21.75;19.50;;;;;;;;5104986;27;61965;-84
2022/11/13 07:08:34;;;;;;;;;20.50;15.50;;;;;;;;5103768;27;62904;-83
2022/11/13 07:11:11;;;;;;;;;23.75;21.75;;;;;;;;5104516;27;61815;-87
2022/11/13 07:13:37;;;;;;;;;16.75;16.50;;;;;;;;5083819;28;62075;-78
2022/11/13 07:16:03;;;;;;;;;17.75;15.75;;;;;;;;5064717;28;62135;-80
2022/11/13 07:18:29;;;;;;;;;12.25;10.50;;;;;;;;5064670;28;62829;-81
2022/11/13 07:20:55;;;;;;;;;21.50;17.50;;;;;;;;5084035;28;61748;-81
2022/11/13 07:23:20;;;;;;;;;18.25;17.25;;;;;;;;5083776;28;62005;-81
2022/11/13 07:25:45;;;;;;;;;22.50;19.00;;;;;;;;5083973;28;62088;-81
2022/11/13 07:28:11;;;;;;;;;21.00;20.00;;;;;;;;5083656;28;62065;-82
2022/11/13 07:30:36;;;;;;;;;30.25;20.00;;;;;;;;5064948;28;61790;-82
2022/11/13 07:33:03;;;;;;;;;30.00;24.00;;;;;;;;5065165;28;62436;-82
2022/11/13 07:35:28;;;;;;;;;28.50;24.25;;;;;;;;5084158;28;61767;-82
2022/11/13 07:37:54;;;;;;;;;28.00;21.25;;;;;;;;5098415;27;61810;-81
2022/11/13 07:40:20;;;;;;;;;27.25;25.75;;;;;;;;5085714;27;61758;-89
2022/11/13 07:42:45;;;;;;;;;21.00;21.00;;;;;;;;5085217;27;62141;-82
2022/11/13 07:45:11;;;;;;;;;22.00;17.50;;;;;;;;5104076;27;61680;-80
2022/11/13 07:47:36;;;;;;;;;22.50;18.75;;;;;;;;5084753;27;61796;-80
2022/11/13 07:50:01;;;;;;;;;22.25;16.00;;;;;;;;5084989;27;61775;-86
2022/11/13 07:52:27;;;;;;;;;20.50;20.00;;;;;;;;5103658;27;61923;-82
2022/11/13 07:54:53;;;;;;;;;22.50;19.50;;;;;;;;5085777;27;62241;-83
2022/11/13 07:57:19;;;;;;;;;18.25;14.75;;;;;;;;5084742;27;64594;-83
2022/11/13 07:59:45;;;;;;;;;23.00;20.00;;;;;;;;5084021;27;61981;-85
2022/11/13 08:02:14;;;;;;;;;16.75;16.25;;;;;;;;5085284;27;61822;-86
2022/11/13 08:04:39;;;;;;;;;20.75;18.75;;;;;;;;5103674;27;61803;-84
2022/11/13 08:07:04;;;;;;;;;24.00;21.25;;;;;;;;5103217;27;61959;-82
2022/11/13 08:09:30;;;;;;;;;17.75;15.75;;;;;;;;5103713;27;61955;-84
2022/11/13 08:11:55;;;;;;;;;24.00;19.00;;;;;;;;5103375;27;61759;-81
2022/11/13 08:14:20;;;;;;;;;28.75;20.75;;;;;;;;5103198;27;61860;-79
2022/11/13 08:16:46;;;;;;;;;23.50;18.25;;;;;;;;5102611;27;62110;-79
2022/11/13 08:19:11;;;;;;;;;25.50;21.50;;;;;;;;5103012;27;61955;-82
2022/11/13 08:21:36;;;;;;;;;28.75;23.75;;;;;;;;5103404;27;62187;-82
2022/11/13 08:24:02;;;;;;;;;25.75;21.25;;;;;;;;5103206;27;61685;-79
2022/11/13 08:26:27;;;;;;;;;24.75;22.50;;;;;;;;5102274;27;61915;-83
2022/11/13 08:28:52;;;;;;;;;28.00;21.75;;;;;;;;5084275;27;61797;-81
2022/11/13 08:31:18;;;;;;;;;24.00;22.75;;;;;;;;5103027;27;61868;-80
2022/11/13 08:33:43;;;;;;;;;23.75;21.25;;;;;;;;5103422;27;61877;-80
2022/11/13 08:36:09;;;;;;;;;22.00;19.75;;;;;;;;5083982;27;62019;-80
2022/11/13 08:38:34;;;;;;;;;24.25;18.00;;;;;;;;5084706;27;61920;-80
2022/11/13 08:41:01;;;;;;;;;27.50;23.25;;;;;;;;5084561;27;61826;-81
2022/11/13 08:43:26;;;;;;;;;26.00;22.00;;;;;;;;5084105;27;62070;-79
2022/11/13 08:45:51;;;;;;;;;22.00;20.00;;;;;;;;5102389;27;61827;-82
2022/11/13 08:48:17;;;;;;;;;22.50;20.75;;;;;;;;5102758;27;61839;-78
2022/11/13 08:50:42;;;;;;;;;26.50;20.25;;;;;;;;5102861;27;61795;-78
2022/11/13 08:53:07;;;;;;;;;22.75;20.50;;;;;;;;5102784;27;61889;-81
2022/11/13 08:55:33;;;;;;;;;15.50;15.50;;;;;;;;5102716;27;61980;-83
2022/11/13 08:57:59;;;;;;;;;21.25;20.25;;;;;;;;5102373;27;61809;-80
2022/11/13 09:00:25;;;;;;;;;21.00;20.00;;;;;;;;5102385;27;62151;-85
2022/11/13 09:02:55;;;;;;;;;21.50;13.50;;;;;;;;5085320;27;61863;-83
2022/11/13 09:05:20;;;;;;;;;34.00;26.25;;;;;;;;5086575;27;64602;-78
2022/11/13 09:07:45;;;;;;;;;21.50;19.50;;;;;;;;5104159;27;61881;-78
2022/11/13 09:10:11;;;;;;;;;24.25;18.50;;;;;;;;5102806;27;61908;-79
2022/11/13 09:12:37;;;;;;;;;24.75;19.75;;;;;;;;5084460;27;61853;-78
2022/11/13 09:15:02;;;;;;;;;19.25;18.25;;;;;;;;5101899;27;62595;-81
2022/11/13 09:17:27;;;;;;;;;25.00;22.50;;;;;;;;5102737;27;61847;-82
2022/11/13 09:19:53;;;;;;;;;24.00;24.00;;;;;;;;5083095;27;62081;-84
2022/11/13 09:22:19;;;;;;;;;24.00;21.25;;;;;;;;5101491;27;62472;-82
2022/11/13 09:24:45;;;;;;;;;25.00;20.75;;;;;;;;5081807;27;63544;-79
2022/11/13 09:27:11;;;;;;;;;22.25;19.50;;;;;;;;5082100;27;61895;-79
2022/11/13 09:29:36;;;;;;;;;27.75;18.50;;;;;;;;5101387;27;61933;-78
2022/11/13 09:32:01;;;;;;;;;25.75;22.25;;;;;;;;5100989;27;61878;-79
2022/11/13 09:34:26;;;;;;;;;27.75;24.50;;;;;;;;5099963;27;62673;-79
2022/11/13 09:36:52;;;;;;;;;34.75;23.25;;;;;;;;5081348;27;61913;-80
2022/11/13 09:39:18;;;;;;;;;20.25;16.75;;;;;;;;5084674;27;61847;-81
2022/11/13 09:41:46;;;;;;;;;27.25;22.25;;;;;;;;5085888;27;62051;-80
2022/11/13 09:44:14;;;;;;;;;29.75;23.50;;;;;;;;5103412;27;62163;-79
2022/11/13 09:46:46;;;;;;;;;25.25;22.75;;;;;;;;5084330;27;62143;-83
2022/11/13 09:49:21;;;;;;;;;24.00;21.00;;;;;;;;5101088;27;61791;-82
2022/11/13 09:51:51;;;;;;;;;24.00;22.50;;;;;;;;5085274;27;62201;-85
2022/11/13 09:54:16;;;;;;;;;23.75;19.25;;;;;;;;5102512;27;62765;-81
2022/11/13 09:56:43;;;;;;;;;23.25;20.25;;;;;;;;5103404;27;61714;-85
2022/11/13 09:59:27;;;;;;;;;25.50;20.50;;;;;;;;5104141;27;61855;-82
2022/11/13 10:01:52;;;;;;;;;26.50;21.50;;;;;;;;5083325;27;62007;-83
2022/11/13 10:04:23;;;;;;;;;20.50;16.25;;;;;;;;5104063;27;61897;-83
2022/11/13 10:06:52;;;;;;;;;25.25;19.00;;;;;;;;5105307;27;61867;-82
2022/11/13 10:09:22;;;;;;;;;28.25;19.25;;;;;;;;5104946;27;62156;-83
2022/11/13 10:11:55;;;;;;;;;25.00;23.25;;;;;;;;5085970;27;61875;-77
2022/11/13 10:14:25;;;;;;;;;30.25;20.50;;;;;;;;5102005;27;62017;-78
2022/11/13 10:16:57;;;;;;;;;27.00;19.50;;;;;;;;5082792;27;61992;-77
2022/11/13 10:19:28;;;;;;;;;22.00;17.75;;;;;;;;5101246;27;61868;-77
2022/11/13 10:22:02;;;;;;;;;19.50;17.25;;;;;;;;5083977;27;61924;-78
2022/11/13 10:24:32;;;;;;;;;21.00;17.50;;;;;;;;5101551;27;61778;-77
2022/11/13 10:26:58;;;;;;;;;24.00;22.50;;;;;;;;5102911;27;62198;-77
2022/11/13 10:29:25;;;;;;;;;26.00;19.25;;;;;;;;5084312;27;62070;-77
2022/11/13 10:31:51;;;;;;;;;17.75;17.25;;;;;;;;5085830;27;61849;-78
2022/11/13 10:34:17;;;;;;;;;24.75;20.00;;;;;;;;5104128;27;62056;-78
2022/11/13 10:36:58;;;;;;;;;12.00;5.50;;;;;;;;5102769;27;61830;-78
2022/11/13 10:39:23;;;;;;;;;25.50;21.75;;;;;;;;5084676;27;61975;-78
2022/11/13 10:41:49;;;;;;;;;24.25;20.75;;;;;;;;5104081;27;61927;-79
2022/11/13 10:44:21;;;;;;;;;24.00;22.00;;;;;;;;5085147;27;63491;-79
2022/11/13 10:46:46;;;;;;;;;19.00;18.75;;;;;;;;5085559;27;62049;-77
2022/11/13 10:49:16;;;;;;;;;21.75;19.75;;;;;;;;5103996;27;61821;-77
2022/11/13 10:51:41;;;;;;;;;18.75;17.75;;;;;;;;5105109;27;61835;-77
2022/11/13 10:54:30;;;;;;;;;24.50;20.50;;;;;;;;5085040;27;63236;-78
2022/11/13 10:56:59;;;;;;;;;20.75;18.50;;;;;;;;5090362;27;61841;-77
2022/11/13 10:59:25;;;;;;;;;23.00;18.00;;;;;;;;5103943;27;62135;-77
2022/11/13 11:01:50;;;;;;;;;24.00;20.25;;;;;;;;5103561;27;61911;-78
2022/11/13 11:04:20;;;;;;;;;24.50;22.00;;;;;;;;5070449;27;63639;-79
2022/11/13 11:06:46;;;;;;;;;26.00;21.75;;;;;;;;5101657;27;62241;-79
2022/11/13 11:09:24;;;;;;;;;26.00;20.25;;;;;;;;5084388;27;62038;-83
2022/11/13 11:12:16;;;;;;;;;24.50;22.75;;;;;;;;5104194;27;61814;-83
2022/11/13 11:14:41;;;;;;;;;27.25;20.25;;;;;;;;5079203;27;62757;-80
2022/11/13 11:17:08;;;;;;;;;25.50;22.00;;;;;;;;5102778;27;61930;-84
2022/11/13 11:19:36;;;;;;;;;26.00;22.00;;;;;;;;5102692;27;61719;-81
2022/11/13 11:22:22;;;;;;;;;28.25;23.75;;;;;;;;5085623;27;62034;-82
2022/11/13 11:24:56;;;;;;;;;35.50;24.50;;;;;;;;5101956;27;63550;-84
2022/11/13 11:27:25;;;;;;;;;21.50;20.00;;;;;;;;5103237;27;61903;-80
2022/11/13 11:29:58;;;;;;;;;24.75;18.00;;;;;;;;5101190;27;62172;-82
2022/11/13 11:32:30;;;;;;;;;32.00;21.00;;;;;;;;5084397;27;62247;-83
2022/11/13 11:35:16;;;;;;;;;24.00;21.75;;;;;;;;5102692;27;62677;-81
2022/11/13 11:38:04;;;;;;;;;30.25;27.00;;;;;;;;5083153;27;61973;-80
2022/11/13 11:40:35;;;;;;;;;23.50;22.50;;;;;;;;5101185;27;62262;-80
2022/11/13 11:43:05;;;;;;;;;26.50;23.00;;;;;;;;5102136;27;61914;-80
2022/11/13 11:45:35;;;;;;;;;24.75;21.75;;;;;;;;5101585;27;61948;-81
2022/11/13 11:48:03;;;;;;;;;26.00;22.50;;;;;;;;5084557;27;61812;-81
2022/11/13 11:51:07;;;;;;;;;27.50;20.25;;;;;;;;5102706;27;61977;-80
2022/11/13 11:53:39;;;;;;;;;23.25;22.50;;;;;;;;5047690;28;62332;-81
2022/11/13 11:56:14;;;;;;;;;25.00;21.00;;;;;;;;5038586;28;62969;-82
2022/11/13 11:59:00;;;;;;;;;24.00;22.00;;;;;;;;5037702;28;62035;-80
2022/11/13 12:01:43;;;;;;;;;23.00;20.50;;;;;;;;5036323;28;62095;-79
2022/11/13 12:04:15;;;;;;;;;28.50;23.75;;;;;;;;5039070;28;62374;-79
2022/11/13 12:06:55;;;;;;;;;24.50;17.75;;;;;;;;5042645;28;64815;-78
2022/11/13 12:09:23;;;;;;;;;26.50;23.75;;;;;;;;5060593;28;61913;-80
2022/11/13 12:11:58;;;;;;;;;34.00;26.25;;;;;;;;5040544;28;62098;-78
2022/11/13 12:14:23;;;;;;;;;27.50;23.00;;;;;;;;5040305;28;61980;-80
2022/11/13 12:16:57;;;;;;;;;29.00;25.25;;;;;;;;5022272;28;62882;-79
2022/11/13 12:19:31;;;;;;;;;24.00;23.00;;;;;;;;5039682;28;61816;-80
2022/11/13 12:22:18;;;;;;;;;28.75;22.75;;;;;;;;5039860;28;62013;-82
2022/11/13 12:24:55;;;;;;;;;27.25;23.50;;;;;;;;5057723;28;62165;-80
2022/11/13 12:27:21;;;;;;;;;33.50;27.25;;;;;;;;5064093;28;63530;-79
2022/11/13 12:30:07;;;;;;;;;32.25;31.25;;;;;;;;5082917;28;61962;-81
2022/11/13 12:32:33;;;;;;;;;25.25;25.25;;;;;;;;5084245;27;61924;-81
2022/11/13 12:35:02;;;;;;;;;39.00;28.75;;;;;;;;5085589;27;61813;-80
2022/11/13 12:37:33;;;;;;;;;30.75;25.50;;;;;;;;5099385;27;61991;-80
2022/11/13 12:40:07;;;;;;;;;37.00;32.50;;;;;;;;5083391;27;62235;-83
2022/11/13 12:42:58;;;;;;;;;38.00;30.00;;;;;;;;5061474;27;62219;-84
2022/11/13 12:45:24;;;;;;;;;32.00;25.25;;;;;;;;5095780;27;62011;-79
2022/11/13 12:47:51;;;;;;;;;41.50;33.00;;;;;;;;5080813;27;62117;-78
2022/11/13 12:50:22;;;;;;;;;37.50;29.75;;;;;;;;5081097;27;62095;-78
2022/11/13 12:53:01;;;;;;;;;28.75;23.00;;;;;;;;5082263;27;61974;-81
2022/11/13 12:55:28;;;;;;;;;21.75;21.00;;;;;;;;5100083;27;61937;-81
2022/11/13 12:57:56;;;;;;;;;33.75;23.00;;;;;;;;5099380;27;62920;-76
2022/11/13 13:00:26;;;;;;;;;25.00;23.50;;;;;;;;5080559;27;61797;-76
2022/11/13 13:03:07;;;;;;;;;31.00;22.75;;;;;;;;5079315;27;61921;-77
2022/11/13 13:05:44;;;;;;;;;31.75;24.50;;;;;;;;5086639;27;62020;-79
2022/11/13 13:08:30;;;;;;;;;30.75;27.75;;;;;;;;5095657;27;61816;-80
2022/11/13 13:11:02;;;;;;;;;26.25;24.25;;;;;;;;5079579;27;62169;-81
2022/11/13 13:13:51;;;;;;;;;27.50;25.75;;;;;;;;5082523;27;62059;-82
2022/11/13 13:16:21;;;;;;;;;32.00;28.00;;;;;;;;5102510;27;61941;-82
2022/11/13 13:18:47;;;;;;;;;28.75;23.75;;;;;;;;5099968;27;61829;-82
2022/11/13 13:21:14;;;;;;;;;53.00;40.00;;;;;;;;5083273;27;62099;-83
2022/11/13 13:23:42;;;;;;;;;54.25;42.00;;;;;;;;5082900;27;61969;-84
2022/11/13 13:26:18;;;;;;;;;31.25;29.25;;;;;;;;5082057;27;62068;-83
2022/11/13 13:29:11;;;;;;;;;37.75;32.75;;;;;;;;5100363;27;62173;-83
2022/11/13 13:31:40;;;;;;;;;42.50;33.00;;;;;;;;5081688;27;61929;-83
2022/11/13 13:34:25;;;;;;;;;38.33;30.00;;;;;;;;5082214;27;62226;-85
2022/11/13 13:36:57;;;;;;;;;24.00;21.00;;;;;;;;5082196;27;62205;-82
2022/11/13 13:39:33;;;;;;;;;39.50;31.25;;;;;;;;5107197;27;61962;-84
2022/11/13 13:41:59;;;;;;;;;25.33;23.67;;;;;;;;5107735;27;61913;-83
2022/11/13 13:44:36;;;;;;;;;37.75;29.75;;;;;;;;5101001;27;61957;-83
2022/11/13 13:47:05;;;;;;;;;36.00;27.75;;;;;;;;5100964;27;61906;-83
2022/11/13 13:49:31;;;;;;;;;27.00;22.75;;;;;;;;5101713;27;62172;-82
2022/11/13 13:51:57;;;;;;;;;31.50;25.25;;;;;;;;5084698;27;61881;-85
2022/11/13 13:54:25;;;;;;;;;31.75;26.50;;;;;;;;5102613;27;62272;-82
2022/11/13 13:56:51;;;;;;;;;28.75;25.75;;;;;;;;5103596;27;62179;-83
2022/11/13 13:59:19;;;;;;;;;35.50;30.25;;;;;;;;5082244;27;63647;-81
2022/11/13 14:01:58;;;;;;;;;31.50;26.50;;;;;;;;5100699;27;61881;-82
2022/11/13 14:04:28;;;;;;;;;37.25;27.00;;;;;;;;5085466;27;61934;-82
2022/11/13 14:06:57;;;;;;;;;32.00;26.25;;;;;;;;5106025;27;61867;-83
2022/11/13 14:09:24;;;;;;;;;29.25;24.25;;;;;;;;5081911;27;63609;-82
2022/11/13 14:11:57;;;;;;;;;25.50;23.25;;;;;;;;5083072;27;61845;-81
2022/11/13 14:14:23;;;;;;;;;28.75;24.50;;;;;;;;5084170;27;61875;-82
2022/11/13 14:16:52;;;;;;;;;24.00;20.25;;;;;;;;5102668;27;62027;-83
2022/11/13 14:19:18;;;;;;;;;29.00;25.75;;;;;;;;5065570;27;61924;-84
2022/11/13 14:21:45;;;;;;;;;28.25;24.25;;;;;;;;5097526;27;61985;-83